createdAt,value
2019-05-17T00:00:52.154Z,19.27
2019-05-17T00:01:52.132Z,19.16
2019-05-17T00:02:52.140Z,19.23
2019-05-17T00:03:52.116Z,19.19
2019-05-17T00:04:52.103Z,19.15
2019-05-17T00:05:52.089Z,19.22
2019-05-17T00:06:52.083Z,19.20
2019-05-17T00:07:52.086Z,19.24
2019-05-17T00:08:52.060Z,19.11
2019-05-17T00:09:52.051Z,19.23
2019-05-17T00:10:52.116Z,19.11
2019-05-17T00:11:52.030Z,19.11
2019-05-17T00:12:52.048Z,19.09
2019-05-17T00:13:52.013Z,19.12
2019-05-17T00:14:52.000Z,19.16
2019-05-17T00:15:51.996Z,19.15
2019-05-17T00:16:51.974Z,19.09
2019-05-17T00:17:51.980Z,19.11
2019-05-17T00:18:51.968Z,19.12
2019-05-17T00:19:52.466Z,19.16
2019-05-17T00:20:51.966Z,19.12
2019-05-17T00:21:51.917Z,19.11
2019-05-17T00:22:51.925Z,19.17
2019-05-17T00:23:51.899Z,19.19
2019-05-17T00:24:51.936Z,19.07
2019-05-17T00:25:51.884Z,19.15
2019-05-17T00:26:51.869Z,19.15
2019-05-17T00:27:51.920Z,19.09
2019-05-17T00:28:51.855Z,19.15
2019-05-17T00:29:51.836Z,19.15
2019-05-17T00:30:51.829Z,19.05
2019-05-17T00:31:51.827Z,19.11
2019-05-17T00:32:51.819Z,19.15
2019-05-17T00:33:51.825Z,19.04
2019-05-17T00:34:51.789Z,19.22
2019-05-17T00:35:51.774Z,19.11
2019-05-17T00:36:51.766Z,19.15
2019-05-17T00:37:51.758Z,19.09
2019-05-17T00:38:51.778Z,19.05
2019-05-17T00:39:51.735Z,19.11
2019-05-17T00:40:51.725Z,19.23
2019-05-17T00:41:51.711Z,19.04
2019-05-17T00:42:51.720Z,19.16
2019-05-17T00:43:51.705Z,19.09
2019-05-17T00:44:51.688Z,19.17
2019-05-17T00:45:51.679Z,19.12
2019-05-17T00:46:51.667Z,19.09
2019-05-17T00:47:51.652Z,19.16
2019-05-17T00:48:51.657Z,19.11
2019-05-17T00:49:51.629Z,19.05
2019-05-17T00:50:54.003Z,19.16
2019-05-17T00:51:51.611Z,19.05
2019-05-17T00:52:51.602Z,19.04
2019-05-17T00:53:51.613Z,19.17
2019-05-17T00:54:51.578Z,19.08
2019-05-17T00:55:51.563Z,19.04
2019-05-17T00:56:51.553Z,19.19
2019-05-17T00:57:51.550Z,19.16
2019-05-17T00:58:51.553Z,19.08
2019-05-17T00:59:51.527Z,19.17
2019-05-17T01:00:51.516Z,19.07
2019-05-17T01:01:51.509Z,19.17
2019-05-17T01:02:51.495Z,19.15
2019-05-17T01:03:51.506Z,19.12
2019-05-17T01:04:51.475Z,19.08
2019-05-17T01:05:51.464Z,19.16
2019-05-17T01:06:51.453Z,19.12
2019-05-17T01:07:51.444Z,19.04
2019-05-17T01:09:00.805Z,19.15
2019-05-17T01:09:52.425Z,19.09
2019-05-17T01:10:51.413Z,19.07
2019-05-17T01:11:51.400Z,19.11
2019-05-17T01:12:51.388Z,19.27
2019-05-17T01:13:51.397Z,19.35
2019-05-17T01:14:51.370Z,19.64
2019-05-17T01:15:51.363Z,19.87
2019-05-17T01:16:51.347Z,20.18
2019-05-17T01:17:51.336Z,20.46
2019-05-17T01:18:51.340Z,20.68
2019-05-17T01:19:51.317Z,20.82
2019-05-17T01:20:51.306Z,20.89
2019-05-17T01:21:51.297Z,21.15
2019-05-17T01:22:51.288Z,21.26
2019-05-17T01:23:51.316Z,21.37
2019-05-17T01:24:51.269Z,21.62
2019-05-17T01:25:51.255Z,21.62
2019-05-17T01:26:51.252Z,21.70
2019-05-17T01:27:51.232Z,21.80
2019-05-17T01:28:51.222Z,21.97
2019-05-17T01:29:51.227Z,22.06
2019-05-17T01:30:51.199Z,22.14
2019-05-17T01:31:51.193Z,22.30
2019-05-17T01:32:51.183Z,22.36
2019-05-17T01:33:51.173Z,22.52
2019-05-17T01:34:51.177Z,22.59
2019-05-17T01:35:51.151Z,22.73
2019-05-17T01:36:51.143Z,22.80
2019-05-17T01:37:51.123Z,22.92
2019-05-17T01:38:51.115Z,22.93
2019-05-17T01:39:51.121Z,23.06
2019-05-17T01:40:51.097Z,23.11
2019-05-17T01:41:51.089Z,23.14
2019-05-17T01:42:51.070Z,23.28
2019-05-17T01:43:51.063Z,23.25
2019-05-17T01:44:51.069Z,23.23
2019-05-17T01:45:51.039Z,23.37
2019-05-17T01:46:51.027Z,23.32
2019-05-17T01:47:51.019Z,23.28
2019-05-17T01:48:51.007Z,23.21
2019-05-17T01:49:51.008Z,23.21
2019-05-17T01:50:50.980Z,23.18
2019-05-17T01:51:50.973Z,23.18
2019-05-17T01:52:50.965Z,23.21
2019-05-17T01:53:50.953Z,23.08
2019-05-17T01:54:50.956Z,23.04
2019-05-17T01:55:50.928Z,22.98
2019-05-17T01:56:50.937Z,22.95
2019-05-17T01:57:50.913Z,22.93
2019-05-17T01:58:50.902Z,22.89
2019-05-17T01:59:50.904Z,22.84
2019-05-17T02:00:50.874Z,22.91
2019-05-17T02:01:50.865Z,22.81
2019-05-17T02:02:50.857Z,22.77
2019-05-17T02:03:50.846Z,22.70
2019-05-17T02:04:50.848Z,22.67
2019-05-17T02:05:50.829Z,22.63
2019-05-17T02:06:50.812Z,22.44
2019-05-17T02:07:50.800Z,22.43
2019-05-17T02:08:50.793Z,22.33
2019-05-17T02:09:50.793Z,22.34
2019-05-17T02:10:50.777Z,22.19
2019-05-17T02:11:50.760Z,22.15
2019-05-17T02:12:50.749Z,22.03
2019-05-17T02:13:50.740Z,21.88
2019-05-17T02:14:50.745Z,21.80
2019-05-17T02:15:50.719Z,21.83
2019-05-17T02:16:50.720Z,21.66
2019-05-17T02:17:50.706Z,21.66
2019-05-17T02:18:50.689Z,21.54
2019-05-17T02:19:50.688Z,21.44
2019-05-17T02:20:50.667Z,21.38
2019-05-17T02:21:50.665Z,21.50
2019-05-17T02:22:50.642Z,21.32
2019-05-17T02:23:50.634Z,21.23
2019-05-17T02:24:50.655Z,21.25
2019-05-17T02:25:50.618Z,21.23
2019-05-17T02:26:50.605Z,21.23
2019-05-17T02:27:52.283Z,21.13
2019-05-17T02:28:52.030Z,21.11
2019-05-17T02:29:51.987Z,21.03
2019-05-17T02:30:53.028Z,21.00
2019-05-17T02:31:52.652Z,21.00
2019-05-17T02:32:53.830Z,21.03
2019-05-17T02:33:53.366Z,20.88
2019-05-17T02:34:52.945Z,20.86
2019-05-17T02:35:53.430Z,20.92
2019-05-17T02:36:53.213Z,20.85
2019-05-17T02:37:53.348Z,20.85
2019-05-17T02:38:53.185Z,20.82
2019-05-17T02:40:01.043Z,20.90
2019-05-17T02:40:53.561Z,20.77
2019-05-17T02:41:53.215Z,20.86
2019-05-17T02:42:53.304Z,20.88
2019-05-17T02:43:53.330Z,20.82
2019-05-17T02:44:53.114Z,20.85
2019-05-17T02:45:52.791Z,20.73
2019-05-17T02:46:53.515Z,20.74
2019-05-17T02:47:53.484Z,20.70
2019-05-17T02:48:53.585Z,20.68
2019-05-17T02:49:52.505Z,20.63
2019-05-17T02:50:53.278Z,20.55
2019-05-17T02:51:52.786Z,20.56
2019-05-17T02:52:52.767Z,20.56
2019-05-17T02:53:52.644Z,20.55
2019-05-17T02:54:52.641Z,20.46
2019-05-17T02:55:53.702Z,20.46
2019-05-17T02:56:53.673Z,20.52
2019-05-17T02:57:52.795Z,20.44
2019-05-17T02:58:53.207Z,20.33
2019-05-17T02:59:52.590Z,20.34
2019-05-17T03:00:53.246Z,20.26
2019-05-17T03:01:52.746Z,20.26
2019-05-17T03:02:53.393Z,20.27
2019-05-17T03:03:52.883Z,20.24
2019-05-17T03:04:52.609Z,20.14
2019-05-17T03:05:53.310Z,20.19
2019-05-17T03:06:53.150Z,20.17
2019-05-17T03:07:52.812Z,20.15
2019-05-17T03:08:52.469Z,20.11
2019-05-17T03:09:53.213Z,20.14
2019-05-17T03:10:53.167Z,20.04
2019-05-17T03:11:52.915Z,20.08
2019-05-17T03:12:52.961Z,20.04
2019-05-17T03:13:52.607Z,20.10
2019-05-17T03:14:52.865Z,20.03
2019-05-17T03:15:52.793Z,20.04
2019-05-17T03:16:53.411Z,19.96
2019-05-17T03:17:53.430Z,20.02
2019-05-17T03:18:52.945Z,19.94
2019-05-17T03:19:52.885Z,19.97
2019-05-17T03:20:52.501Z,19.94
2019-05-17T03:21:53.313Z,19.90
2019-05-17T03:22:52.600Z,19.93
2019-05-17T03:23:50.004Z,19.96
2019-05-17T03:24:53.056Z,19.90
2019-05-17T03:25:52.408Z,19.97
2019-05-17T03:26:52.618Z,19.84
2019-05-17T03:27:53.343Z,19.93
2019-05-17T03:28:53.576Z,19.89
2019-05-17T03:29:53.519Z,19.82
2019-05-17T03:30:55.612Z,19.79
2019-05-17T03:31:59.769Z,19.81
2019-05-17T03:32:56.118Z,19.78
2019-05-17T03:33:55.684Z,19.77
2019-05-17T03:34:56.101Z,19.79
2019-05-17T03:35:56.031Z,19.78
2019-05-17T03:36:56.188Z,19.67
2019-05-17T03:37:53.289Z,19.72
2019-05-17T03:38:49.840Z,19.72
2019-05-17T03:39:53.397Z,19.74
2019-05-17T03:41:09.464Z,19.71
2019-05-17T03:41:53.502Z,19.72
2019-05-17T03:42:49.807Z,19.72
2019-05-17T03:43:53.035Z,19.75
2019-05-17T03:44:52.911Z,19.70
2019-05-17T03:45:53.145Z,19.74
2019-05-17T03:46:52.954Z,19.71
2019-05-17T03:47:52.981Z,19.59
2019-05-17T03:48:52.924Z,19.66
2019-05-17T03:49:52.888Z,19.67
2019-05-17T03:50:52.862Z,19.70
2019-05-17T03:51:52.947Z,19.67
2019-05-17T03:52:53.265Z,19.57
2019-05-17T03:53:52.928Z,19.66
2019-05-17T03:54:52.829Z,19.74
2019-05-17T03:55:49.669Z,19.60
2019-05-17T03:56:52.752Z,19.64
2019-05-17T03:57:52.979Z,19.62
2019-05-17T03:58:52.840Z,19.60
2019-05-17T03:59:52.304Z,19.66
2019-05-17T04:00:49.603Z,19.60
2019-05-17T04:01:52.534Z,19.63
2019-05-17T04:02:49.580Z,19.74
2019-05-17T04:03:49.569Z,19.77
2019-05-17T04:04:52.693Z,19.89
2019-05-17T04:05:52.669Z,20.12
2019-05-17T04:06:52.420Z,20.27
2019-05-17T04:07:49.545Z,20.55
2019-05-17T04:08:52.631Z,20.83
2019-05-17T04:09:52.964Z,20.95
2019-05-17T04:10:52.712Z,21.13
2019-05-17T04:11:49.496Z,21.32
2019-05-17T04:12:52.711Z,21.53
2019-05-17T04:13:49.460Z,21.62
2019-05-17T04:14:49.450Z,21.85
2019-05-17T04:15:52.763Z,21.96
2019-05-17T04:16:49.439Z,22.07
2019-05-17T04:17:52.692Z,22.25
2019-05-17T04:18:49.404Z,22.30
2019-05-17T04:19:49.418Z,22.41
2019-05-17T04:20:52.541Z,22.43
2019-05-17T04:21:49.391Z,22.40
2019-05-17T04:22:52.536Z,22.52
2019-05-17T04:23:49.348Z,22.58
2019-05-17T04:24:52.317Z,22.71
2019-05-17T04:25:52.394Z,22.67
2019-05-17T04:26:52.035Z,22.65
2019-05-17T04:27:49.320Z,22.71
2019-05-17T04:28:49.308Z,22.68
2019-05-17T04:29:49.290Z,22.71
2019-05-17T04:30:52.542Z,22.76
2019-05-17T04:31:49.273Z,22.74
2019-05-17T04:32:52.419Z,22.73
2019-05-17T04:33:49.245Z,22.68
2019-05-17T04:34:52.395Z,22.67
2019-05-17T04:35:49.228Z,22.68
2019-05-17T04:36:52.091Z,22.65
2019-05-17T04:37:49.228Z,22.58
2019-05-17T04:38:52.382Z,22.51
2019-05-17T04:39:52.286Z,22.49
2019-05-17T04:40:49.177Z,22.43
2019-05-17T04:41:51.095Z,22.44
2019-05-17T04:42:52.687Z,22.34
2019-05-17T04:43:49.141Z,22.21
2019-05-17T04:44:52.446Z,22.10
2019-05-17T04:45:49.120Z,22.01
2019-05-17T04:46:49.115Z,21.94
2019-05-17T04:47:49.118Z,21.84
2019-05-17T04:48:49.089Z,21.85
2019-05-17T04:49:49.083Z,21.77
2019-05-17T04:50:49.076Z,21.65
2019-05-17T04:51:52.385Z,21.50
2019-05-17T04:52:49.059Z,21.58
2019-05-17T04:53:52.704Z,21.43
2019-05-17T04:54:49.040Z,21.45
2019-05-17T04:55:49.017Z,21.33
2019-05-17T04:56:49.006Z,21.33
2019-05-17T04:57:49.009Z,21.30
2019-05-17T04:58:50.404Z,21.26
2019-05-17T04:59:48.973Z,21.23
2019-05-17T05:00:48.962Z,21.26
2019-05-17T05:01:48.949Z,21.28
2019-05-17T05:02:48.968Z,21.26
2019-05-17T05:03:52.266Z,21.20
2019-05-17T05:04:48.921Z,21.17
2019-05-17T05:05:48.931Z,21.20
2019-05-17T05:06:48.896Z,21.19
2019-05-17T05:07:48.902Z,21.11
2019-05-17T05:08:48.898Z,21.03
2019-05-17T05:09:48.878Z,21.07
2019-05-17T05:10:48.865Z,20.96
2019-05-17T05:11:59.633Z,21.03
2019-05-17T05:12:52.501Z,21.01
2019-05-17T05:13:48.826Z,20.90
2019-05-17T05:14:48.819Z,20.90
2019-05-17T05:15:48.804Z,20.89
2019-05-17T05:16:48.805Z,20.85
2019-05-17T05:17:48.800Z,20.93
2019-05-17T05:18:48.769Z,20.83
2019-05-17T05:19:48.768Z,20.80
2019-05-17T05:20:48.754Z,20.88
2019-05-17T05:21:48.738Z,20.86
2019-05-17T05:22:48.756Z,20.88
2019-05-17T05:23:48.726Z,20.85
2019-05-17T05:24:48.713Z,20.86
2019-05-17T05:25:48.697Z,20.83
2019-05-17T05:26:48.685Z,20.78
2019-05-17T05:27:48.690Z,20.75
2019-05-17T05:28:49.761Z,20.68
2019-05-17T05:29:48.655Z,20.74
2019-05-17T05:30:48.647Z,20.73
2019-05-17T05:31:48.634Z,20.75
2019-05-17T05:32:48.625Z,20.63
2019-05-17T05:33:48.627Z,20.63
2019-05-17T05:34:48.601Z,20.58
2019-05-17T05:35:48.591Z,20.59
2019-05-17T05:36:48.585Z,20.56
2019-05-17T05:37:48.571Z,20.59
2019-05-17T05:38:48.572Z,20.53
2019-05-17T05:39:48.547Z,20.53
2019-05-17T05:40:48.539Z,20.48
2019-05-17T05:41:48.530Z,20.42
2019-05-17T05:42:48.520Z,20.39
2019-05-17T05:43:48.523Z,20.39
2019-05-17T05:44:48.491Z,20.46
2019-05-17T05:45:48.489Z,20.46
2019-05-17T05:46:48.479Z,20.48
2019-05-17T05:47:48.462Z,20.39
2019-05-17T05:48:48.479Z,20.34
2019-05-17T05:49:48.446Z,20.34
2019-05-17T05:50:48.436Z,20.24
2019-05-17T05:51:48.478Z,20.29
2019-05-17T05:52:48.416Z,20.32
2019-05-17T05:53:48.424Z,20.24
2019-05-17T05:54:48.394Z,20.22
2019-05-17T05:55:48.384Z,20.17
2019-05-17T05:56:48.369Z,20.15
2019-05-17T05:57:48.372Z,20.17
2019-05-17T05:58:48.362Z,20.12
2019-05-17T05:59:48.338Z,20.17
2019-05-17T06:00:48.331Z,20.19
2019-05-17T06:01:48.319Z,20.12
2019-05-17T06:02:48.307Z,20.15
2019-05-17T06:03:48.322Z,20.15
2019-05-17T06:04:48.301Z,20.14
2019-05-17T06:05:48.276Z,20.04
2019-05-17T06:06:48.264Z,20.00
2019-05-17T06:07:48.255Z,20.04
2019-05-17T06:08:48.245Z,19.99
2019-05-17T06:09:48.243Z,19.99
2019-05-17T06:10:48.236Z,19.99
2019-05-17T06:11:48.210Z,20.00
2019-05-17T06:12:48.201Z,19.99
2019-05-17T06:13:48.186Z,19.94
2019-05-17T06:14:48.201Z,20.02
2019-05-17T06:15:48.165Z,19.99
2019-05-17T06:16:48.163Z,19.99
2019-05-17T06:17:48.147Z,19.99
2019-05-17T06:18:48.134Z,19.96
2019-05-17T06:19:48.138Z,19.96
2019-05-17T06:20:48.113Z,20.10
2019-05-17T06:21:48.102Z,20.04
2019-05-17T06:22:48.096Z,19.99
2019-05-17T06:23:48.081Z,20.00
2019-05-17T06:24:48.086Z,20.07
2019-05-17T06:25:48.062Z,19.94
2019-05-17T06:26:48.045Z,19.90
2019-05-17T06:27:48.038Z,19.92
2019-05-17T06:28:48.034Z,19.92
2019-05-17T06:29:48.037Z,19.99
2019-05-17T06:30:48.008Z,19.94
2019-05-17T06:31:47.991Z,19.89
2019-05-17T06:32:47.992Z,19.94
2019-05-17T06:33:47.978Z,19.84
2019-05-17T06:34:47.977Z,19.89
2019-05-17T06:35:47.951Z,19.81
2019-05-17T06:36:47.940Z,19.87
2019-05-17T06:37:47.932Z,19.77
2019-05-17T06:38:47.923Z,19.84
2019-05-17T06:39:47.928Z,19.78
2019-05-17T06:40:47.901Z,19.78
2019-05-17T06:41:47.907Z,19.71
2019-05-17T06:42:47.873Z,19.75
2019-05-17T06:43:47.873Z,19.67
2019-05-17T06:44:47.868Z,19.77
2019-05-17T06:45:47.849Z,19.71
2019-05-17T06:46:47.832Z,19.67
2019-05-17T06:47:47.817Z,19.72
2019-05-17T06:48:47.820Z,19.75
2019-05-17T06:49:50.483Z,19.77
2019-05-17T06:50:47.785Z,19.74
2019-05-17T06:51:47.774Z,19.71
2019-05-17T06:52:47.765Z,19.71
2019-05-17T06:53:47.752Z,19.75
2019-05-17T06:54:47.757Z,19.71
2019-05-17T06:55:47.731Z,19.81
2019-05-17T06:56:47.723Z,19.89
2019-05-17T06:57:47.714Z,19.90
2019-05-17T06:58:47.717Z,20.17
2019-05-17T06:59:47.710Z,20.22
2019-05-17T07:00:49.704Z,20.48
2019-05-17T07:01:47.668Z,20.74
2019-05-17T07:02:49.825Z,20.88
2019-05-17T07:03:49.557Z,21.14
2019-05-17T07:04:47.633Z,21.35
2019-05-17T07:05:47.643Z,21.56
2019-05-17T07:06:49.512Z,21.75
2019-05-17T07:07:49.847Z,21.85
2019-05-17T07:08:49.503Z,21.97
2019-05-17T07:09:49.682Z,22.10
2019-05-17T07:10:50.113Z,22.16
2019-05-17T07:11:47.559Z,22.28
2019-05-17T07:12:56.042Z,22.25
2019-05-17T07:13:49.577Z,22.37
2019-05-17T07:14:47.524Z,22.41
2019-05-17T07:15:50.237Z,22.44
2019-05-17T07:16:47.505Z,22.49
2019-05-17T07:17:47.495Z,22.44
2019-05-17T07:18:49.424Z,22.46
2019-05-17T07:19:47.512Z,22.58
2019-05-17T07:20:49.986Z,22.47
2019-05-17T07:21:49.440Z,22.44
2019-05-17T07:22:47.439Z,22.46
2019-05-17T07:23:49.802Z,22.49
2019-05-17T07:24:47.430Z,22.43
2019-05-17T07:25:47.449Z,22.47
2019-05-17T07:26:49.723Z,22.43
2019-05-17T07:27:50.089Z,22.40
2019-05-17T07:28:49.680Z,22.38
2019-05-17T07:29:49.604Z,22.31
2019-05-17T07:30:47.373Z,22.34
2019-05-17T07:31:49.667Z,22.28
2019-05-17T07:32:49.621Z,22.31
2019-05-17T07:33:47.319Z,22.19
2019-05-17T07:34:47.315Z,22.19
2019-05-17T07:35:47.329Z,22.08
2019-05-17T07:36:47.294Z,22.08
2019-05-17T07:37:47.284Z,22.08
2019-05-17T07:38:47.274Z,21.88
2019-05-17T07:39:57.875Z,21.83
2019-05-17T07:40:50.144Z,21.80
2019-05-17T07:41:49.326Z,21.62
2019-05-17T07:42:47.236Z,21.65
2019-05-17T07:43:47.222Z,21.45
2019-05-17T07:44:49.541Z,21.54
2019-05-17T07:45:49.464Z,21.48
2019-05-17T07:46:51.736Z,21.50
2019-05-17T07:47:49.401Z,21.37
2019-05-17T07:48:49.615Z,21.33
2019-05-17T07:49:49.354Z,21.26
2019-05-17T07:50:47.153Z,21.25
2019-05-17T07:51:47.133Z,21.26
2019-05-17T07:52:47.119Z,21.15
2019-05-17T07:53:49.311Z,21.14
2019-05-17T07:54:47.101Z,21.11
2019-05-17T07:55:47.105Z,21.10
2019-05-17T07:56:47.084Z,21.07
2019-05-17T07:57:49.452Z,21.04
2019-05-17T07:58:49.352Z,21.04
2019-05-17T07:59:47.051Z,21.01
2019-05-17T08:00:47.074Z,20.96
2019-05-17T08:01:47.048Z,20.93
2019-05-17T08:02:47.020Z,20.95
2019-05-17T08:03:47.002Z,20.95
2019-05-17T08:04:47.036Z,21.01
2019-05-17T08:05:46.987Z,21.01
2019-05-17T08:06:46.985Z,21.00
2019-05-17T08:07:46.965Z,20.96
2019-05-17T08:08:49.913Z,20.86
2019-05-17T08:09:46.958Z,20.90
2019-05-17T08:10:46.930Z,20.89
2019-05-17T08:11:46.937Z,20.86
2019-05-17T08:12:49.652Z,20.90
2019-05-17T08:13:46.900Z,20.86
2019-05-17T08:14:46.885Z,20.88
2019-05-17T08:15:46.876Z,20.89
2019-05-17T08:16:46.884Z,20.82
2019-05-17T08:17:46.855Z,20.92
2019-05-17T08:18:46.842Z,20.82
2019-05-17T08:19:46.836Z,20.89
2019-05-17T08:20:46.828Z,20.88
2019-05-17T08:21:46.830Z,20.89
2019-05-17T08:22:46.804Z,20.82
2019-05-17T08:23:46.805Z,20.86
2019-05-17T08:24:49.227Z,20.71
2019-05-17T08:25:52.647Z,20.75
2019-05-17T08:26:50.123Z,20.71
2019-05-17T08:27:46.749Z,20.93
2019-05-17T08:28:46.750Z,20.83
2019-05-17T08:29:46.727Z,20.85
2019-05-17T08:30:46.725Z,20.82
2019-05-17T08:31:46.727Z,20.83
2019-05-17T08:32:46.724Z,20.82
2019-05-17T08:33:46.712Z,20.74
2019-05-17T08:34:49.503Z,20.83
2019-05-17T08:35:49.471Z,20.80
2019-05-17T08:36:46.669Z,20.80
2019-05-17T08:37:46.648Z,20.74
2019-05-17T08:38:46.633Z,20.75
2019-05-17T08:39:46.639Z,20.70
2019-05-17T08:40:46.617Z,20.67
2019-05-17T08:41:46.623Z,20.73
2019-05-17T08:42:46.592Z,20.73
2019-05-17T08:43:47.252Z,20.73
2019-05-17T08:44:46.579Z,20.68
2019-05-17T08:45:46.559Z,20.71
2019-05-17T08:46:46.569Z,20.71
2019-05-17T08:47:46.541Z,20.71
2019-05-17T08:48:46.529Z,20.64
2019-05-17T08:49:46.520Z,20.70
2019-05-17T08:50:46.506Z,20.64
2019-05-17T08:51:46.541Z,20.64
2019-05-17T08:52:46.488Z,20.68
2019-05-17T08:53:46.478Z,20.64
2019-05-17T08:54:46.465Z,20.60
2019-05-17T08:55:46.456Z,20.75
2019-05-17T08:56:46.470Z,20.67
2019-05-17T08:57:46.436Z,20.67
2019-05-17T08:58:46.448Z,20.75
2019-05-17T08:59:46.417Z,20.74
2019-05-17T09:00:46.405Z,20.68
2019-05-17T09:01:46.407Z,20.75
2019-05-17T09:02:46.385Z,20.75
2019-05-17T09:03:46.369Z,20.70
2019-05-17T09:04:46.363Z,20.66
2019-05-17T09:05:46.358Z,20.68
2019-05-17T09:06:46.362Z,20.67
2019-05-17T09:07:46.334Z,20.74
2019-05-17T09:08:46.318Z,20.74
2019-05-17T09:09:46.335Z,20.67
2019-05-17T09:10:46.303Z,20.67
2019-05-17T09:11:46.287Z,20.64
2019-05-17T09:12:46.291Z,20.70
2019-05-17T09:13:57.335Z,20.70
2019-05-17T09:14:49.474Z,20.73
2019-05-17T09:15:46.242Z,20.73
2019-05-17T09:16:46.240Z,20.73
2019-05-17T09:17:46.239Z,20.67
2019-05-17T09:18:46.213Z,20.73
2019-05-17T09:19:46.202Z,20.74
2019-05-17T09:20:46.194Z,20.74
2019-05-17T09:21:46.182Z,20.70
2019-05-17T09:22:46.196Z,20.80
2019-05-17T09:23:46.162Z,20.75
2019-05-17T09:24:46.146Z,20.85
2019-05-17T09:25:46.143Z,20.82
2019-05-17T09:26:46.194Z,20.85
2019-05-17T09:27:46.139Z,20.82
2019-05-17T09:28:46.116Z,20.85
2019-05-17T09:29:46.113Z,20.80
2019-05-17T09:30:46.087Z,20.77
2019-05-17T09:31:46.079Z,20.75
2019-05-17T09:32:46.091Z,20.89
2019-05-17T09:33:46.064Z,20.89
2019-05-17T09:34:46.037Z,20.98
2019-05-17T09:35:46.130Z,20.80
2019-05-17T09:36:46.016Z,20.93
2019-05-17T09:37:46.031Z,20.82
2019-05-17T09:38:45.997Z,20.86
2019-05-17T09:39:45.993Z,20.82
2019-05-17T09:40:45.978Z,20.78
2019-05-17T09:41:45.970Z,20.96
2019-05-17T09:42:45.970Z,20.92
2019-05-17T09:43:45.953Z,20.82
2019-05-17T09:44:45.941Z,20.83
2019-05-17T09:45:45.935Z,20.74
2019-05-17T09:46:45.913Z,20.85
2019-05-17T09:47:45.919Z,20.86
2019-05-17T09:48:47.033Z,20.88
2019-05-17T09:49:45.885Z,20.86
2019-05-17T09:50:45.878Z,20.86
2019-05-17T09:51:45.861Z,20.82
2019-05-17T09:52:45.865Z,20.90
2019-05-17T09:53:45.840Z,20.82
2019-05-17T09:54:45.830Z,20.86
2019-05-17T09:55:45.823Z,20.83
2019-05-17T09:56:45.809Z,20.89
2019-05-17T09:57:45.827Z,20.82
2019-05-17T09:58:45.791Z,20.92
2019-05-17T09:59:45.778Z,20.83
2019-05-17T10:00:45.769Z,20.92
2019-05-17T10:01:45.756Z,20.92
2019-05-17T10:02:45.772Z,20.82
2019-05-17T10:03:45.758Z,20.73
2019-05-17T10:04:45.727Z,20.85
2019-05-17T10:05:45.720Z,20.89
2019-05-17T10:06:45.701Z,20.89
2019-05-17T10:07:45.700Z,20.88
2019-05-17T10:08:45.700Z,20.85
2019-05-17T10:09:45.671Z,20.83
2019-05-17T10:10:45.663Z,20.83
2019-05-17T10:11:45.655Z,20.89
2019-05-17T10:12:45.642Z,20.89
2019-05-17T10:13:45.783Z,20.80
2019-05-17T10:14:45.631Z,20.85
2019-05-17T10:15:45.604Z,20.82
2019-05-17T10:16:45.606Z,20.82
2019-05-17T10:17:45.587Z,20.82
2019-05-17T10:18:45.589Z,20.86
2019-05-17T10:19:45.566Z,20.83
2019-05-17T10:20:45.551Z,20.85
2019-05-17T10:21:45.552Z,20.71
2019-05-17T10:22:45.530Z,20.89
2019-05-17T10:23:45.538Z,20.85
2019-05-17T10:24:45.515Z,20.77
2019-05-17T10:25:45.507Z,20.89
2019-05-17T10:26:45.489Z,20.88
2019-05-17T10:27:45.491Z,20.88
2019-05-17T10:28:45.486Z,20.82
2019-05-17T10:29:45.458Z,20.93
2019-05-17T10:30:45.458Z,20.75
2019-05-17T10:31:45.440Z,20.85
2019-05-17T10:32:45.434Z,20.78
2019-05-17T10:33:45.432Z,20.75
2019-05-17T10:34:45.408Z,20.95
2019-05-17T10:35:45.406Z,20.88
2019-05-17T10:36:45.390Z,20.88
2019-05-17T10:37:45.375Z,20.71
2019-05-17T10:38:45.376Z,20.78
2019-05-17T10:39:45.357Z,20.75
2019-05-17T10:40:45.346Z,20.74
2019-05-17T10:41:45.338Z,20.80
2019-05-17T10:42:45.320Z,20.80
2019-05-17T10:43:45.324Z,20.89
2019-05-17T10:44:47.754Z,20.83
2019-05-17T10:45:45.291Z,20.71
2019-05-17T10:46:45.352Z,20.74
2019-05-17T10:47:45.268Z,20.73
2019-05-17T10:48:45.276Z,20.73
2019-05-17T10:49:45.253Z,20.74
2019-05-17T10:50:45.345Z,20.89
2019-05-17T10:51:45.233Z,20.85
2019-05-17T10:52:45.217Z,20.88
2019-05-17T10:53:45.226Z,20.95
2019-05-17T10:54:45.194Z,20.89
2019-05-17T10:55:45.199Z,20.89
2019-05-17T10:56:45.187Z,20.92
2019-05-17T10:57:45.163Z,20.90
2019-05-17T10:58:45.190Z,20.96
2019-05-17T10:59:45.144Z,20.92
2019-05-17T11:00:45.131Z,20.88
2019-05-17T11:01:45.120Z,20.93
2019-05-17T11:02:45.114Z,20.88
2019-05-17T11:03:45.116Z,20.89
2019-05-17T11:04:45.093Z,20.90
2019-05-17T11:05:45.111Z,20.89
2019-05-17T11:06:45.070Z,20.88
2019-05-17T11:07:45.075Z,20.98
2019-05-17T11:08:45.076Z,20.95
2019-05-17T11:09:45.034Z,21.00
2019-05-17T11:10:45.030Z,20.96
2019-05-17T11:11:45.028Z,20.92
2019-05-17T11:12:45.026Z,20.98
2019-05-17T11:13:45.005Z,21.00
2019-05-17T11:14:52.587Z,20.96
2019-05-17T11:15:45.966Z,20.98
2019-05-17T11:16:44.965Z,20.90
2019-05-17T11:17:44.956Z,21.00
2019-05-17T11:18:44.957Z,21.04
2019-05-17T11:19:44.932Z,20.95
2019-05-17T11:20:44.921Z,21.01
2019-05-17T11:21:44.920Z,21.03
2019-05-17T11:22:44.908Z,20.96
2019-05-17T11:23:44.910Z,20.98
2019-05-17T11:24:44.879Z,21.03
2019-05-17T11:25:46.438Z,20.90
2019-05-17T11:26:44.864Z,20.95
2019-05-17T11:27:44.843Z,21.01
2019-05-17T11:28:44.847Z,20.93
2019-05-17T11:29:44.828Z,20.92
2019-05-17T11:30:44.822Z,20.95
2019-05-17T11:31:44.807Z,20.90
2019-05-17T11:32:44.797Z,20.95
2019-05-17T11:33:44.808Z,20.93
2019-05-17T11:34:44.773Z,20.98
2019-05-17T11:35:44.765Z,21.04
2019-05-17T11:36:44.749Z,20.96
2019-05-17T11:37:44.740Z,21.07
2019-05-17T11:38:44.751Z,21.05
2019-05-17T11:39:44.719Z,21.03
2019-05-17T11:40:44.716Z,21.07
2019-05-17T11:41:44.701Z,21.03
2019-05-17T11:42:44.713Z,21.08
2019-05-17T11:43:44.764Z,21.08
2019-05-17T11:44:44.678Z,21.07
2019-05-17T11:45:44.661Z,21.11
2019-05-17T11:46:44.641Z,21.08
2019-05-17T11:47:44.645Z,21.07
2019-05-17T11:48:44.642Z,21.03
2019-05-17T11:49:44.613Z,21.04
2019-05-17T11:50:44.639Z,21.08
2019-05-17T11:51:44.594Z,21.08
2019-05-17T11:52:44.583Z,21.05
2019-05-17T11:53:44.584Z,21.08
2019-05-17T11:54:44.562Z,21.05
2019-05-17T11:55:44.556Z,21.10
2019-05-17T11:56:44.542Z,21.14
2019-05-17T11:57:44.530Z,21.15
2019-05-17T11:58:44.545Z,21.17
2019-05-17T11:59:44.505Z,21.15
2019-05-17T12:00:44.498Z,21.17
2019-05-17T12:01:44.490Z,21.15
2019-05-17T12:02:44.490Z,21.13
2019-05-17T12:03:44.468Z,21.15
2019-05-17T12:04:44.473Z,21.15
2019-05-17T12:05:44.445Z,21.20
2019-05-17T12:06:44.431Z,21.17
2019-05-17T12:07:44.427Z,21.19
2019-05-17T12:08:44.430Z,21.20
2019-05-17T12:09:44.419Z,21.20
2019-05-17T12:10:44.480Z,21.15
2019-05-17T12:11:44.380Z,21.19
2019-05-17T12:12:44.372Z,21.17
2019-05-17T12:13:44.357Z,21.15
2019-05-17T12:14:44.370Z,21.14
2019-05-17T12:15:45.710Z,21.15
2019-05-17T12:16:44.328Z,21.15
2019-05-17T12:17:44.321Z,21.20
2019-05-17T12:18:44.307Z,21.22
2019-05-17T12:19:44.311Z,21.19
2019-05-17T12:20:44.292Z,21.14
2019-05-17T12:21:44.281Z,21.14
2019-05-17T12:22:44.268Z,21.19
2019-05-17T12:23:44.281Z,21.19
2019-05-17T12:24:44.274Z,21.28
2019-05-17T12:25:44.242Z,21.23
2019-05-17T12:26:47.348Z,21.23
2019-05-17T12:27:44.297Z,21.25
2019-05-17T12:28:44.206Z,21.23
2019-05-17T12:29:44.340Z,21.30
2019-05-17T12:30:44.180Z,21.29
2019-05-17T12:31:44.171Z,21.28
2019-05-17T12:32:44.159Z,21.28
2019-05-17T12:33:44.154Z,21.33
2019-05-17T12:34:44.201Z,21.33
2019-05-17T12:35:44.125Z,21.23
2019-05-17T12:36:44.115Z,21.28
2019-05-17T12:37:44.109Z,21.29
2019-05-17T12:38:44.100Z,21.23
2019-05-17T12:39:44.115Z,21.32
2019-05-17T12:40:44.094Z,21.26
2019-05-17T12:41:44.102Z,21.29
2019-05-17T12:42:44.059Z,21.37
2019-05-17T12:43:44.044Z,21.35
2019-05-17T12:44:44.053Z,21.35
2019-05-17T12:45:58.054Z,21.30
2019-05-17T12:46:45.053Z,21.30
2019-05-17T12:47:44.005Z,21.33
2019-05-17T12:48:44.000Z,21.35
2019-05-17T12:49:43.995Z,21.35
2019-05-17T12:50:43.986Z,21.47
2019-05-17T12:51:43.960Z,21.54
2019-05-17T12:52:43.943Z,21.37